createdAt,value
2018-06-24T00:00:54.103Z,10.30
2018-06-24T00:03:28.676Z,14.60
2018-06-24T00:06:03.384Z,12.73
2018-06-24T00:08:38.057Z,11.53
2018-06-24T00:11:12.797Z,11.63
2018-06-24T00:13:47.506Z,12.50
2018-06-24T00:16:21.939Z,12.57
2018-06-24T00:18:56.639Z,14.00
2018-06-24T00:21:31.196Z,11.90
2018-06-24T00:24:05.844Z,11.77
2018-06-24T00:26:40.239Z,10.37
2018-06-24T00:29:14.772Z,9.20
2018-06-24T00:31:49.212Z,10.97
2018-06-24T00:34:23.672Z,15.17
2018-06-24T00:36:58.161Z,17.33
2018-06-24T00:39:32.773Z,14.70
2018-06-24T00:42:07.433Z,10.57
2018-06-24T00:44:42.028Z,11.73
2018-06-24T00:47:16.678Z,14.40
2018-06-24T00:49:51.324Z,17.27
2018-06-24T00:52:25.869Z,14.57
2018-06-24T00:55:00.540Z,12.80
2018-06-24T00:57:35.005Z,13.30
2018-06-24T01:00:14.364Z,15.40
2018-06-24T01:02:48.816Z,13.80
2018-06-24T01:05:23.508Z,13.77
2018-06-24T01:07:58.127Z,13.33
2018-06-24T01:10:32.788Z,15.37
2018-06-24T01:13:07.436Z,14.73
2018-06-24T01:15:42.113Z,14.97
2018-06-24T01:18:16.627Z,15.10
2018-06-24T01:20:51.448Z,15.67
2018-06-24T01:23:25.984Z,16.17
2018-06-24T01:26:00.348Z,16.73
2018-06-24T01:28:35.114Z,14.13
2018-06-24T01:31:09.688Z,12.87
2018-06-24T01:33:44.438Z,12.10
2018-06-24T01:36:19.229Z,13.00
2018-06-24T01:38:53.833Z,12.87
2018-06-24T01:41:28.419Z,18.30
2018-06-24T01:44:02.897Z,14.70
2018-06-24T01:46:37.497Z,12.53
2018-06-24T01:49:12.002Z,13.53
2018-06-24T01:51:46.610Z,12.77
2018-06-24T01:54:21.246Z,9.83
2018-06-24T01:56:55.794Z,12.83
2018-06-24T01:59:30.172Z,12.07
2018-06-24T02:02:04.694Z,14.70
2018-06-24T02:04:39.316Z,13.33
2018-06-24T02:07:14.018Z,12.60
2018-06-24T02:09:48.689Z,9.87
2018-06-24T02:12:23.172Z,13.47
2018-06-24T02:14:57.564Z,17.23
2018-06-24T02:17:32.033Z,12.67
2018-06-24T02:20:06.767Z,13.37
2018-06-24T02:22:41.314Z,13.57
2018-06-24T02:25:15.970Z,12.47
2018-06-24T02:27:50.670Z,14.03
2018-06-24T02:30:25.262Z,14.27
2018-06-24T02:32:59.710Z,15.50
2018-06-24T02:35:34.107Z,11.73
2018-06-24T02:38:08.659Z,11.30
2018-06-24T02:40:43.239Z,13.07
2018-06-24T02:43:19.555Z,17.17
2018-06-24T02:45:54.024Z,14.27
2018-06-24T02:48:28.414Z,16.70
2018-06-24T02:51:03.668Z,12.07
2018-06-24T02:53:38.360Z,16.97
2018-06-24T02:56:12.817Z,15.67
2018-06-24T02:58:47.232Z,14.37
2018-06-24T03:01:21.895Z,16.77
2018-06-24T03:03:56.517Z,17.37
2018-06-24T03:06:30.989Z,16.90
2018-06-24T03:09:08.360Z,16.33
2018-06-24T03:11:42.894Z,14.27
2018-06-24T03:14:17.746Z,12.90
2018-06-24T03:16:52.885Z,18.30
2018-06-24T03:19:27.526Z,13.80
2018-06-24T03:22:02.201Z,14.00
2018-06-24T03:24:36.734Z,12.23
2018-06-24T03:27:11.324Z,16.40
2018-06-24T03:29:46.637Z,14.10
2018-06-24T03:32:21.566Z,15.23
2018-06-24T03:34:56.121Z,13.73
2018-06-24T03:37:30.588Z,10.63
2018-06-24T03:40:05.434Z,12.53
2018-06-24T03:42:39.918Z,13.23
2018-06-24T03:45:14.496Z,16.43
2018-06-24T03:47:49.021Z,12.60
2018-06-24T03:50:23.421Z,14.77
2018-06-24T03:52:57.892Z,15.90
2018-06-24T03:55:32.438Z,12.00
2018-06-24T03:58:06.983Z,14.77
2018-06-24T04:00:41.493Z,14.83
2018-06-24T04:03:15.882Z,12.13
2018-06-24T04:05:50.387Z,13.70
2018-06-24T04:08:24.960Z,17.90
2018-06-24T04:10:59.432Z,18.80
2018-06-24T04:13:33.904Z,18.63
2018-06-24T04:16:08.421Z,19.60
2018-06-24T04:18:43.862Z,13.23
2018-06-24T04:21:18.402Z,15.53
2018-06-24T04:23:52.956Z,17.20
2018-06-24T04:26:27.492Z,15.20
2018-06-24T04:29:02.052Z,18.33
2018-06-24T04:31:36.840Z,18.13
2018-06-24T04:34:11.347Z,14.80
2018-06-24T04:36:46.032Z,16.13
2018-06-24T04:39:20.680Z,15.63
2018-06-24T04:41:55.095Z,14.47
2018-06-24T04:44:29.464Z,17.07
2018-06-24T04:47:03.824Z,15.60
2018-06-24T04:49:38.214Z,12.13
2018-06-24T04:52:13.162Z,12.80
2018-06-24T04:54:47.798Z,12.13
2018-06-24T04:57:22.420Z,18.30
2018-06-24T04:59:57.528Z,11.67
2018-06-24T05:02:32.672Z,11.93
2018-06-24T05:05:07.466Z,17.03
2018-06-24T05:07:42.161Z,11.63
2018-06-24T05:10:16.796Z,11.77
2018-06-24T05:12:51.411Z,11.97
2018-06-24T05:15:26.190Z,13.73
2018-06-24T05:18:01.210Z,11.67
2018-06-24T05:20:36.389Z,12.30
2018-06-24T05:23:12.144Z,12.37
2018-06-24T05:25:46.744Z,16.47
2018-06-24T05:28:21.438Z,14.33
2018-06-24T05:30:55.967Z,12.03
2018-06-24T05:33:30.463Z,13.63
2018-06-24T05:36:05.239Z,11.87
2018-06-24T05:38:40.393Z,11.30
2018-06-24T05:41:14.948Z,12.40
2018-06-24T05:43:49.438Z,12.53
2018-06-24T05:46:23.916Z,13.83
2018-06-24T05:48:58.948Z,15.80
2018-06-24T05:51:33.416Z,13.13
2018-06-24T05:54:08.044Z,11.17
2018-06-24T05:56:42.626Z,11.57
2018-06-24T05:59:16.972Z,12.70
2018-06-24T06:01:52.924Z,10.70
2018-06-24T06:04:27.472Z,15.23
2018-06-24T06:07:01.932Z,11.17
2018-06-24T06:09:36.477Z,12.30
2018-06-24T06:12:10.889Z,9.23
2018-06-24T06:14:45.524Z,9.20
2018-06-24T06:17:19.996Z,10.47
2018-06-24T06:19:54.615Z,7.57
2018-06-24T06:22:29.064Z,15.47
2018-06-24T06:25:03.508Z,9.20
2018-06-24T06:27:38.277Z,8.77
2018-06-24T06:30:12.688Z,7.17
2018-06-24T06:32:47.320Z,8.17
2018-06-24T06:35:21.763Z,6.80
2018-06-24T06:37:56.393Z,9.10
2018-06-24T06:40:31.018Z,9.67
2018-06-24T06:43:05.602Z,6.17
2018-06-24T06:45:40.575Z,7.43
2018-06-24T06:48:15.053Z,8.40
2018-06-24T06:50:49.526Z,6.07
2018-06-24T06:53:24.034Z,8.37
2018-06-24T06:55:58.453Z,7.50
2018-06-24T06:58:33.035Z,8.00
2018-06-24T07:01:07.484Z,5.80
2018-06-24T07:03:42.025Z,6.20
2018-06-24T07:06:16.474Z,8.43
2018-06-24T07:08:51.066Z,11.13
2018-06-24T07:11:25.674Z,8.90
2018-06-24T07:14:00.151Z,8.73
2018-06-24T07:16:34.892Z,11.90
2018-06-24T07:19:09.439Z,9.87
2018-06-24T07:21:44.054Z,10.13
2018-06-24T07:24:18.659Z,10.17
2018-06-24T07:26:53.038Z,9.90
2018-06-24T07:29:27.564Z,14.40
2018-06-24T07:32:02.079Z,12.93
2018-06-24T07:34:37.256Z,11.70
2018-06-24T07:37:11.896Z,9.33
2018-06-24T07:39:46.512Z,11.33
2018-06-24T07:42:21.136Z,12.70
2018-06-24T07:44:55.736Z,12.03
2018-06-24T07:47:30.116Z,10.07
2018-06-24T07:50:04.750Z,9.43
2018-06-24T07:52:39.201Z,13.97
2018-06-24T07:55:13.610Z,11.10
2018-06-24T07:57:48.554Z,11.10
2018-06-24T08:00:23.105Z,11.90
2018-06-24T08:02:57.638Z,14.83
2018-06-24T08:05:32.342Z,8.87
2018-06-24T08:08:07.096Z,14.87
2018-06-24T08:10:43.039Z,10.37
2018-06-24T08:13:17.800Z,16.77
2018-06-24T08:15:53.155Z,16.17
2018-06-24T08:18:27.994Z,13.87
2018-06-24T08:21:02.803Z,14.73
2018-06-24T08:23:45.179Z,15.93
2018-06-24T08:26:19.863Z,14.63
2018-06-24T08:28:54.914Z,14.80
2018-06-24T08:31:29.733Z,16.53
2018-06-24T08:34:04.271Z,12.83
2018-06-24T08:36:38.912Z,15.60
2018-06-24T08:39:13.368Z,10.90
2018-06-24T08:41:55.118Z,14.27
2018-06-24T08:44:30.412Z,14.50
2018-06-24T08:47:05.228Z,11.40
2018-06-24T08:49:39.850Z,9.37
2018-06-24T08:52:15.776Z,12.00
2018-06-24T08:54:50.521Z,16.63
2018-06-24T08:57:26.132Z,15.17
2018-06-24T09:00:01.774Z,13.03
2018-06-24T09:02:37.152Z,15.73
2018-06-24T09:05:12.383Z,8.07
2018-06-24T09:07:46.936Z,10.60
2018-06-24T09:10:21.345Z,11.43
2018-06-24T09:12:59.308Z,13.00
2018-06-24T09:15:34.172Z,13.53
2018-06-24T09:18:08.705Z,11.13
2018-06-24T09:20:43.416Z,12.97
2018-06-24T09:23:18.042Z,14.10
2018-06-24T09:25:52.573Z,7.73
2018-06-24T09:28:27.256Z,8.10
2018-06-24T09:31:01.924Z,9.83
2018-06-24T09:33:36.454Z,12.43
2018-06-24T09:36:11.066Z,8.90
2018-06-24T09:38:45.733Z,7.57
2018-06-24T09:41:20.458Z,12.27
2018-06-24T09:43:54.888Z,10.70
2018-06-24T09:46:29.276Z,8.37
2018-06-24T09:49:04.153Z,8.13
2018-06-24T09:51:38.600Z,8.90
2018-06-24T09:54:13.145Z,6.17
2018-06-24T09:56:47.665Z,8.10
2018-06-24T09:59:22.422Z,8.60
2018-06-24T10:01:57.145Z,6.93
2018-06-24T10:04:31.709Z,8.83
2018-06-24T10:07:06.248Z,6.03
2018-06-24T10:09:40.748Z,6.23
2018-06-24T10:12:15.216Z,6.20
2018-06-24T10:14:49.716Z,9.40
2018-06-24T10:17:24.312Z,8.00
2018-06-24T10:19:58.886Z,5.50
2018-06-24T10:22:33.483Z,8.93
2018-06-24T10:25:07.953Z,8.40
2018-06-24T10:27:42.305Z,9.10
2018-06-24T10:30:16.884Z,9.90
2018-06-24T10:32:51.546Z,7.67
2018-06-24T10:35:26.061Z,8.60
2018-06-24T10:38:00.640Z,7.93
2018-06-24T10:40:35.171Z,8.10
2018-06-24T10:43:09.809Z,6.63
2018-06-24T10:45:45.046Z,7.37
2018-06-24T10:48:19.620Z,5.80
2018-06-24T10:50:54.197Z,5.40
2018-06-24T10:53:28.756Z,7.87
2018-06-24T10:56:03.162Z,6.37
2018-06-24T10:58:37.860Z,9.93
2018-06-24T11:01:12.432Z,4.27
2018-06-24T11:03:47.125Z,9.20
2018-06-24T11:06:22.590Z,7.63
2018-06-24T11:08:57.129Z,6.57
2018-06-24T11:11:31.745Z,6.40
2018-06-24T11:14:06.519Z,7.03
2018-06-24T11:16:41.056Z,7.37
2018-06-24T11:19:15.504Z,5.90
2018-06-24T11:21:50.143Z,5.63
2018-06-24T11:24:24.620Z,4.90
2018-06-24T11:26:59.200Z,6.40
2018-06-24T11:29:33.675Z,6.17
2018-06-24T11:32:08.371Z,5.33
2018-06-24T11:34:43.041Z,6.63
2018-06-24T11:37:17.617Z,5.00
2018-06-24T11:39:52.033Z,6.93
2018-06-24T11:42:26.563Z,6.53
2018-06-24T11:45:01.200Z,6.33
2018-06-24T11:47:35.781Z,6.63
2018-06-24T11:50:10.180Z,6.17
2018-06-24T11:52:44.950Z,7.57
2018-06-24T11:55:19.448Z,8.47
2018-06-24T11:57:53.796Z,9.37
2018-06-24T12:00:28.240Z,10.43
2018-06-24T12:03:03.058Z,9.40
2018-06-24T12:05:37.628Z,6.80
2018-06-24T12:08:12.152Z,8.83
2018-06-24T12:10:46.773Z,5.73
2018-06-24T12:13:21.454Z,9.70
2018-06-24T12:15:56.144Z,6.10
2018-06-24T12:18:30.784Z,7.50
2018-06-24T12:21:05.299Z,7.47
2018-06-24T12:23:39.770Z,6.93
2018-06-24T12:26:14.073Z,7.47
2018-06-24T12:28:48.846Z,5.43
2018-06-24T12:31:23.666Z,8.13
2018-06-24T12:33:58.483Z,8.47
2018-06-24T12:36:38.248Z,6.43
2018-06-24T12:39:14.975Z,8.27
2018-06-24T12:41:49.564Z,7.80
2018-06-24T12:44:24.160Z,8.70
2018-06-24T12:46:58.881Z,8.40
2018-06-24T12:49:33.486Z,6.23
2018-06-24T12:52:08.096Z,9.00
2018-06-24T12:54:42.613Z,7.20
2018-06-24T12:57:17.079Z,8.40
2018-06-24T12:59:51.755Z,5.60
2018-06-24T13:02:26.048Z,6.47
2018-06-24T13:05:00.488Z,6.03
2018-06-24T13:07:34.863Z,8.27
2018-06-24T13:10:09.269Z,7.13
2018-06-24T13:12:43.587Z,8.10
2018-06-24T13:15:18.016Z,7.40
2018-06-24T13:17:52.256Z,7.10
2018-06-24T13:20:26.657Z,6.93
2018-06-24T13:23:01.068Z,8.73
2018-06-24T13:25:35.616Z,6.80
2018-06-24T13:28:10.085Z,7.73
2018-06-24T13:30:44.427Z,5.93
2018-06-24T13:33:18.757Z,8.37
2018-06-24T13:35:53.187Z,8.13
2018-06-24T13:38:27.641Z,8.20
2018-06-24T13:41:02.020Z,5.73
2018-06-24T13:43:36.369Z,5.40
2018-06-24T13:46:10.853Z,4.80
2018-06-24T13:48:45.080Z,10.20
2018-06-24T13:51:19.384Z,7.80
2018-06-24T13:53:53.854Z,4.60
2018-06-24T13:56:28.402Z,8.53
2018-06-24T13:59:02.783Z,5.43
2018-06-24T14:01:37.224Z,7.13
2018-06-24T14:04:11.675Z,7.27
2018-06-24T14:06:46.100Z,6.13
2018-06-24T14:09:20.433Z,7.10
2018-06-24T14:11:54.799Z,5.13
2018-06-24T14:14:29.325Z,8.03
2018-06-24T14:17:03.854Z,5.50
2018-06-24T14:19:38.235Z,6.23
2018-06-24T14:22:12.491Z,11.37
2018-06-24T14:24:47.029Z,5.37
2018-06-24T14:27:21.477Z,7.87
2018-06-24T14:29:55.696Z,9.40
2018-06-24T14:32:30.114Z,9.47
2018-06-24T14:35:04.535Z,10.00
2018-06-24T14:37:38.824Z,16.13
2018-06-24T14:40:13.828Z,11.10
2018-06-24T14:42:48.243Z,10.07
2018-06-24T14:45:22.543Z,9.90
2018-06-24T14:47:57.493Z,11.83
2018-06-24T14:50:31.893Z,10.93
2018-06-24T14:53:06.243Z,15.07
2018-06-24T14:55:40.610Z,11.70
2018-06-24T14:58:14.817Z,13.00
2018-06-24T15:00:49.224Z,12.67
2018-06-24T15:03:23.605Z,13.53
2018-06-24T15:05:57.852Z,10.17
2018-06-24T15:08:32.272Z,14.70
2018-06-24T15:11:06.680Z,10.13
2018-06-24T15:13:41.024Z,12.80
2018-06-24T15:16:15.324Z,12.67
2018-06-24T15:18:49.856Z,11.53
2018-06-24T15:21:24.075Z,10.53
2018-06-24T15:23:58.800Z,9.77
2018-06-24T15:26:33.050Z,8.53
2018-06-24T15:29:07.388Z,7.37
2018-06-24T15:31:41.704Z,6.93
2018-06-24T15:34:16.040Z,9.30
2018-06-24T15:36:50.300Z,11.03
2018-06-24T15:39:24.691Z,10.80
2018-06-24T15:41:59.067Z,10.67
2018-06-24T15:44:33.299Z,7.50
2018-06-24T15:47:07.722Z,7.13
2018-06-24T15:49:42.065Z,10.70
2018-06-24T15:52:16.437Z,8.63
2018-06-24T15:54:50.859Z,9.87
2018-06-24T15:57:25.244Z,14.77
2018-06-24T15:59:59.632Z,12.47
2018-06-24T16:02:34.019Z,9.83
2018-06-24T16:05:08.443Z,9.07
2018-06-24T16:07:42.852Z,15.00
2018-06-24T16:10:17.372Z,12.60
2018-06-24T16:12:52.525Z,13.57
2018-06-24T16:15:27.005Z,11.73
2018-06-24T16:18:01.644Z,10.70
2018-06-24T16:20:36.572Z,10.43
2018-06-24T16:23:11.117Z,9.20
2018-06-24T16:25:45.781Z,8.97
2018-06-24T16:28:20.329Z,8.17
2018-06-24T16:30:54.904Z,8.73
2018-06-24T16:33:29.309Z,6.77
2018-06-24T16:36:03.877Z,6.77
2018-06-24T16:38:38.295Z,5.60
2018-06-24T16:41:12.855Z,7.50
2018-06-24T16:43:47.261Z,10.03
2018-06-24T16:46:21.813Z,5.53
2018-06-24T16:48:57.303Z,6.07
2018-06-24T16:51:32.070Z,8.13
2018-06-24T16:54:06.700Z,6.93
2018-06-24T16:56:41.313Z,4.77
2018-06-24T16:59:15.912Z,6.50
2018-06-24T17:01:51.029Z,6.60
2018-06-24T17:04:25.889Z,12.33
2018-06-24T17:07:00.710Z,11.83
2018-06-24T17:09:35.293Z,5.40
2018-06-24T17:12:09.892Z,6.27
2018-06-24T17:14:44.718Z,5.90
2018-06-24T17:17:20.145Z,6.17
2018-06-24T17:19:54.750Z,5.83
2018-06-24T17:22:29.403Z,7.23
2018-06-24T17:25:04.040Z,6.37
2018-06-24T17:27:39.889Z,5.97
2018-06-24T17:30:14.396Z,7.60
2018-06-24T17:32:48.892Z,3.43
2018-06-24T17:35:23.577Z,7.43
2018-06-24T17:37:58.439Z,6.60
2018-06-24T17:40:32.923Z,5.90
2018-06-24T17:43:07.553Z,5.63
2018-06-24T17:45:42.182Z,7.20
2018-06-24T17:48:16.720Z,9.10
2018-06-24T17:50:51.481Z,6.47
2018-06-24T17:53:26.287Z,10.73
2018-06-24T17:56:00.990Z,8.40
2018-06-24T17:58:35.635Z,6.97
2018-06-24T18:01:11.260Z,6.30
2018-06-24T18:03:46.113Z,5.73
2018-06-24T18:06:20.853Z,7.87
2018-06-24T18:08:56.316Z,6.77
2018-06-24T18:11:30.941Z,8.47
2018-06-24T18:14:05.481Z,8.73
2018-06-24T18:16:40.216Z,7.67
2018-06-24T18:19:14.645Z,9.03
2018-06-24T18:21:49.196Z,6.87
2018-06-24T18:24:23.775Z,9.23
2018-06-24T18:26:58.292Z,6.83
2018-06-24T18:29:32.801Z,7.60
2018-06-24T18:32:07.377Z,9.00
2018-06-24T18:34:42.005Z,6.87
2018-06-24T18:37:16.540Z,8.63
2018-06-24T18:39:51.146Z,5.83
2018-06-24T18:42:25.880Z,10.50
2018-06-24T18:45:00.367Z,10.37
2018-06-24T18:47:34.856Z,8.60
2018-06-24T18:50:09.527Z,11.90
2018-06-24T18:52:44.173Z,10.97
2018-06-24T18:55:18.706Z,9.57
2018-06-24T18:57:53.314Z,14.47
2018-06-24T19:00:27.917Z,8.70
2018-06-24T19:03:02.476Z,11.13
2018-06-24T19:05:36.805Z,13.40
2018-06-24T19:08:11.344Z,9.23
2018-06-24T19:10:45.881Z,7.10
2018-06-24T19:13:20.513Z,8.50
2018-06-24T19:15:55.204Z,12.30
2018-06-24T19:18:29.768Z,8.23
2018-06-24T19:21:04.536Z,9.00
2018-06-24T19:23:39.161Z,9.60
2018-06-24T19:26:13.821Z,11.80
2018-06-24T19:28:48.428Z,9.13
2018-06-24T19:31:22.764Z,9.40
2018-06-24T19:33:57.296Z,6.93
2018-06-24T19:36:31.892Z,11.00
2018-06-24T19:39:09.101Z,7.63
2018-06-24T19:41:43.556Z,6.33
2018-06-24T19:44:18.174Z,7.20
2018-06-24T19:46:52.638Z,6.37
2018-06-24T19:49:27.349Z,6.60
2018-06-24T19:52:01.717Z,6.53
2018-06-24T19:54:36.418Z,7.03
2018-06-24T19:57:10.987Z,8.97
2018-06-24T19:59:45.549Z,12.70
2018-06-24T20:02:20.181Z,6.90
2018-06-24T20:04:54.749Z,8.17
2018-06-24T20:07:29.412Z,9.77
2018-06-24T20:10:03.866Z,7.97
2018-06-24T20:12:38.637Z,10.67
2018-06-24T20:15:13.117Z,11.93
2018-06-24T20:17:47.661Z,8.17
2018-06-24T20:20:22.246Z,10.87
2018-06-24T20:22:56.730Z,8.77
2018-06-24T20:25:31.377Z,11.83
2018-06-24T20:28:06.318Z,9.03
2018-06-24T20:30:40.993Z,9.43
2018-06-24T20:33:15.484Z,17.10
2018-06-24T20:35:50.316Z,10.73
2018-06-24T20:38:24.944Z,5.80
2018-06-24T20:40:59.605Z,8.13
2018-06-24T20:43:34.930Z,7.70
2018-06-24T20:46:09.662Z,5.33
2018-06-24T20:48:44.305Z,6.03
2018-06-24T20:51:18.968Z,7.63
2018-06-24T20:53:56.565Z,5.03
2018-06-24T20:56:31.300Z,6.40
2018-06-24T20:59:09.179Z,4.77
2018-06-24T21:01:44.209Z,6.57
2018-06-24T21:04:19.742Z,6.70
2018-06-24T21:06:54.276Z,6.80
2018-06-24T21:09:34.594Z,5.60
2018-06-24T21:12:08.989Z,5.57
2018-06-24T21:14:43.718Z,5.50
2018-06-24T21:17:18.427Z,5.80
2018-06-24T21:19:52.986Z,9.20
2018-06-24T21:22:27.505Z,6.20
2018-06-24T21:25:01.992Z,5.27
2018-06-24T21:27:36.527Z,6.10
2018-06-24T21:30:10.881Z,5.13
2018-06-24T21:32:45.226Z,5.10
2018-06-24T21:35:19.613Z,5.17
2018-06-24T21:37:54.083Z,5.20
2018-06-24T21:40:28.794Z,7.30
2018-06-24T21:43:03.490Z,5.13
2018-06-24T21:45:38.428Z,6.37
2018-06-24T21:48:12.892Z,6.37
2018-06-24T21:50:47.372Z,6.33
2018-06-24T21:53:21.926Z,5.97
2018-06-24T21:55:56.526Z,5.53
2018-06-24T21:58:30.982Z,4.60
2018-06-24T22:01:05.405Z,8.80
2018-06-24T22:03:39.744Z,6.60
2018-06-24T22:06:14.581Z,5.33
2018-06-24T22:08:49.088Z,6.40
2018-06-24T22:11:23.804Z,4.97
2018-06-24T22:13:58.344Z,3.70
2018-06-24T22:16:32.838Z,3.67
2018-06-24T22:19:07.664Z,5.47
2018-06-24T22:21:42.344Z,3.40
2018-06-24T22:24:16.870Z,3.70
2018-06-24T22:26:51.265Z,4.73
2018-06-24T22:29:25.682Z,4.63
2018-06-24T22:32:00.295Z,3.50
2018-06-24T22:34:34.718Z,5.40
2018-06-24T22:37:09.301Z,7.03
2018-06-24T22:39:43.732Z,8.43
2018-06-24T22:42:19.100Z,6.73
2018-06-24T22:44:53.767Z,8.73
2018-06-24T22:47:28.433Z,8.00
2018-06-24T22:50:03.146Z,7.90
2018-06-24T22:52:37.678Z,10.17
2018-06-24T22:55:12.364Z,9.47
2018-06-24T22:57:46.831Z,9.67
2018-06-24T23:00:21.409Z,9.03
2018-06-24T23:03:00.419Z,10.23
2018-06-24T23:05:35.152Z,8.73
2018-06-24T23:08:09.630Z,8.13
2018-06-24T23:10:44.152Z,7.10
2018-06-24T23:13:18.625Z,7.53
2018-06-24T23:15:53.114Z,7.17
2018-06-24T23:18:27.749Z,5.77
2018-06-24T23:21:02.449Z,4.50
2018-06-24T23:23:37.241Z,5.03
2018-06-24T23:26:11.845Z,6.50
2018-06-24T23:28:46.464Z,9.07
2018-06-24T23:31:21.077Z,6.20
2018-06-24T23:33:55.774Z,6.07
2018-06-24T23:36:30.384Z,7.80
2018-06-24T23:39:07.582Z,6.87
2018-06-24T23:41:42.169Z,6.13
2018-06-24T23:44:16.615Z,10.17
2018-06-24T23:46:51.119Z,9.93
2018-06-24T23:49:25.701Z,8.93
2018-06-24T23:52:00.468Z,8.70
2018-06-24T23:54:35.013Z,8.30
2018-06-24T23:57:09.477Z,10.40
2018-06-24T23:59:44.111Z,8.37
